Time;durP1;ratioP1;P1;durP2;ratioP2;P2;SDS_P1;SDS_P2;PMS_P1;PMS_P2;Temp;Humidity;BMP_temperature;BMP_pressure;BME280_temperature;BME280_humidity;BME280_pressure;Samples;Min_cycle;Max_cycle;Signal;HPM_P1;HPM_P2
2022/03/29 00:02:02;;;;;;;15.32;7.18;;;;;;;;;;4951330;29;20056;-80
2022/03/29 00:04:34;;;;;;;13.52;7.03;;;;;;;;;;4938552;28;20027;-81
2022/03/29 00:06:59;;;;;;;15.50;6.93;;;;;;;;;;4932872;29;20545;-80
2022/03/29 00:09:25;;;;;;;15.18;7.88;;;;;;;;;;4949707;29;20039;-79
2022/03/29 00:11:50;;;;;;;14.18;7.50;;;;;;;;;;4932045;29;20027;-79
2022/03/29 00:14:16;;;;;;;16.77;7.28;;;;;;;;;;4946156;28;20023;-79
2022/03/29 00:16:42;;;;;;;16.27;7.55;;;;;;;;;;4950226;28;20493;-79
2022/03/29 00:19:08;;;;;;;17.48;7.20;;;;;;;;;;4968997;28;20046;-80
2022/03/29 00:21:34;;;;;;;15.35;6.97;;;;;;;;;;4961062;28;20022;-79
2022/03/29 00:23:59;;;;;;;14.68;6.90;;;;;;;;;;4952650;28;20055;-79
2022/03/29 00:26:25;;;;;;;19.70;7.75;;;;;;;;;;4919645;29;20027;-79
2022/03/29 00:28:50;;;;;;;14.63;6.93;;;;;;;;;;4950810;28;20031;-79
2022/03/29 00:31:17;;;;;;;16.67;7.28;;;;;;;;;;4957119;29;20106;-78
2022/03/29 00:33:43;;;;;;;13.80;6.78;;;;;;;;;;4978486;23;20045;-80
2022/03/29 00:36:08;;;;;;;16.35;8.02;;;;;;;;;;4985779;28;20042;-80
2022/03/29 00:38:34;;;;;;;13.10;7.03;;;;;;;;;;4997386;28;20234;-80
2022/03/29 00:41:01;;;;;;;13.45;7.00;;;;;;;;;;4993184;28;20030;-81
2022/03/29 00:43:26;;;;;;;15.57;7.30;;;;;;;;;;5005634;28;20021;-82
2022/03/29 00:45:52;;;;;;;10.18;6.47;;;;;;;;;;5011861;28;20034;-83
2022/03/29 00:48:17;;;;;;;13.73;6.50;;;;;;;;;;5004331;28;20098;-82
2022/03/29 00:50:44;;;;;;;15.45;7.25;;;;;;;;;;5004560;28;20026;-82
2022/03/29 00:53:09;;;;;;;15.00;6.68;;;;;;;;;;5008844;28;20120;-82
2022/03/29 00:55:36;;;;;;;15.20;8.27;;;;;;;;;;5013092;28;20480;-81
2022/03/29 00:58:03;;;;;;;17.67;8.02;;;;;;;;;;5014063;28;20029;-82
2022/03/29 01:00:30;;;;;;;13.00;7.25;;;;;;;;;;5003468;28;20030;-82
2022/03/29 01:02:56;;;;;;;12.38;6.40;;;;;;;;;;5003623;28;20121;-81
2022/03/29 01:05:21;;;;;;;19.45;6.82;;;;;;;;;;5004806;28;20041;-82
2022/03/29 01:07:47;;;;;;;15.70;8.05;;;;;;;;;;5009949;28;20033;-81
2022/03/29 01:10:12;;;;;;;12.75;6.97;;;;;;;;;;5011167;28;20040;-82
2022/03/29 01:12:38;;;;;;;25.48;7.78;;;;;;;;;;5008971;28;20037;-82
2022/03/29 01:15:07;;;;;;;39.95;9.80;;;;;;;;;;5018099;28;20097;-83
2022/03/29 01:17:39;;;;;;;24.13;8.30;;;;;;;;;;5014604;28;20045;-82
2022/03/29 01:20:10;;;;;;;16.13;7.22;;;;;;;;;;5012086;28;20030;-82
2022/03/29 01:22:40;;;;;;;18.30;8.03;;;;;;;;;;5015663;28;20040;-80
2022/03/29 01:25:06;;;;;;;16.83;7.32;;;;;;;;;;5023577;28;20260;-79
2022/03/29 01:27:32;;;;;;;19.38;6.95;;;;;;;;;;5031218;28;20045;-80
2022/03/29 01:29:59;;;;;;;15.13;7.20;;;;;;;;;;5020711;28;20040;-81
2022/03/29 01:32:29;;;;;;;15.95;7.43;;;;;;;;;;5019063;28;20018;-80
2022/03/29 01:34:56;;;;;;;12.82;7.25;;;;;;;;;;5023067;28;20077;-79
2022/03/29 01:37:22;;;;;;;12.73;6.72;;;;;;;;;;5006439;28;20022;-78
2022/03/29 01:39:47;;;;;;;12.23;6.95;;;;;;;;;;5017473;28;20046;-78
2022/03/29 01:42:13;;;;;;;14.43;6.47;;;;;;;;;;5034103;28;20040;-79
2022/03/29 01:44:39;;;;;;;14.52;7.80;;;;;;;;;;5036522;28;20013;-78
2022/03/29 01:47:06;;;;;;;14.02;7.93;;;;;;;;;;5026563;28;20074;-81
2022/03/29 01:49:32;;;;;;;14.10;7.30;;;;;;;;;;5007213;28;20081;-80
2022/03/29 01:51:58;;;;;;;12.27;6.82;;;;;;;;;;5014055;28;20037;-81
2022/03/29 01:54:24;;;;;;;15.35;6.93;;;;;;;;;;5020588;28;20484;-81
2022/03/29 01:56:49;;;;;;;17.33;7.13;;;;;;;;;;5005147;28;20029;-80
2022/03/29 01:59:14;;;;;;;15.63;7.72;;;;;;;;;;4989170;28;20034;-82
2022/03/29 02:01:48;;;;;;;14.82;7.20;;;;;;;;;;5014560;28;20037;-82
2022/03/29 02:04:14;;;;;;;13.82;7.78;;;;;;;;;;5023134;28;20029;-80
2022/03/29 02:06:40;;;;;;;16.67;7.88;;;;;;;;;;5006690;28;20034;-81
2022/03/29 02:09:07;;;;;;;16.80;6.97;;;;;;;;;;5008927;28;20031;-81
2022/03/29 02:11:36;;;;;;;15.27;8.07;;;;;;;;;;5007089;28;20061;-80
2022/03/29 02:14:02;;;;;;;15.95;6.97;;;;;;;;;;4991013;28;20447;-81
2022/03/29 02:16:28;;;;;;;27.48;8.30;;;;;;;;;;5017427;28;20484;-81
2022/03/29 02:18:53;;;;;;;16.05;7.43;;;;;;;;;;5011064;28;20033;-81
2022/03/29 02:21:18;;;;;;;21.88;7.95;;;;;;;;;;5007480;28;20366;-81
2022/03/29 02:23:44;;;;;;;11.43;6.88;;;;;;;;;;5015166;28;20036;-81
2022/03/29 02:26:10;;;;;;;18.35;7.55;;;;;;;;;;5019550;28;20025;-81
2022/03/29 02:28:35;;;;;;;20.45;6.93;;;;;;;;;;4991131;28;20023;-79
2022/03/29 02:31:01;;;;;;;13.27;7.07;;;;;;;;;;4992573;28;20028;-82
2022/03/29 02:33:26;;;;;;;17.35;8.40;;;;;;;;;;5004849;28;20030;-81
2022/03/29 02:35:52;;;;;;;12.93;7.35;;;;;;;;;;5004939;28;20038;-81
2022/03/29 02:38:18;;;;;;;18.48;8.10;;;;;;;;;;5004002;28;20037;-81
2022/03/29 02:40:44;;;;;;;16.98;7.82;;;;;;;;;;5010517;28;20377;-82
2022/03/29 02:43:10;;;;;;;16.52;7.57;;;;;;;;;;5014424;28;20057;-82
2022/03/29 02:45:35;;;;;;;14.10;7.88;;;;;;;;;;5013888;28;20034;-81
2022/03/29 02:48:00;;;;;;;17.40;7.88;;;;;;;;;;5006517;28;20109;-81
2022/03/29 02:50:26;;;;;;;16.50;7.18;;;;;;;;;;5003672;28;20383;-81
2022/03/29 02:52:58;;;;;;;20.70;7.93;;;;;;;;;;5014105;28;20153;-81
2022/03/29 02:55:29;;;;;;;18.77;7.97;;;;;;;;;;5002846;28;20026;-81
2022/03/29 02:57:56;;;;;;;16.02;8.50;;;;;;;;;;5007010;28;20034;-79
2022/03/29 03:00:22;;;;;;;21.27;9.20;;;;;;;;;;4987667;28;20030;-80
2022/03/29 03:02:50;;;;;;;19.70;8.18;;;;;;;;;;5005002;28;20095;-82
2022/03/29 03:05:16;;;;;;;12.55;7.70;;;;;;;;;;4986991;28;20034;-83
2022/03/29 03:07:43;;;;;;;16.02;7.70;;;;;;;;;;5005565;28;20065;-83
2022/03/29 03:10:10;;;;;;;19.10;8.27;;;;;;;;;;5007048;28;20026;-82
2022/03/29 03:12:39;;;;;;;13.40;7.85;;;;;;;;;;4989700;28;20195;-83
2022/03/29 03:15:06;;;;;;;16.58;8.20;;;;;;;;;;5010076;28;20018;-83
2022/03/29 03:17:32;;;;;;;15.48;8.50;;;;;;;;;;5015989;28;20026;-81
2022/03/29 03:19:57;;;;;;;17.60;7.57;;;;;;;;;;5010789;28;20038;-80
2022/03/29 03:22:23;;;;;;;20.08;8.10;;;;;;;;;;5010158;28;20022;-81
2022/03/29 03:24:48;;;;;;;19.63;8.30;;;;;;;;;;5007581;28;20157;-80
2022/03/29 03:27:16;;;;;;;19.88;7.82;;;;;;;;;;5003157;28;20073;-81
2022/03/29 03:29:42;;;;;;;16.38;8.30;;;;;;;;;;5006375;28;20030;-81
2022/03/29 03:32:08;;;;;;;14.25;8.35;;;;;;;;;;5002044;28;20030;-82
2022/03/29 03:34:34;;;;;;;22.75;7.72;;;;;;;;;;5002006;28;20496;-82
2022/03/29 03:37:02;;;;;;;16.17;8.20;;;;;;;;;;5005130;28;20120;-81
2022/03/29 03:39:28;;;;;;;14.45;7.45;;;;;;;;;;4999437;28;20027;-81
2022/03/29 03:41:54;;;;;;;14.90;8.20;;;;;;;;;;5011490;28;20033;-81
2022/03/29 03:44:19;;;;;;;16.58;8.68;;;;;;;;;;5018427;28;20069;-79
2022/03/29 03:46:44;;;;;;;14.45;8.38;;;;;;;;;;5012272;28;20030;-81
2022/03/29 03:49:10;;;;;;;14.90;8.80;;;;;;;;;;5005085;28;20045;-81
2022/03/29 03:51:35;;;;;;;16.05;7.35;;;;;;;;;;5006763;28;20045;-82
2022/03/29 03:54:01;;;;;;;13.40;7.82;;;;;;;;;;5013801;28;20037;-81
2022/03/29 03:56:26;;;;;;;15.07;8.27;;;;;;;;;;5002888;28;20032;-80
2022/03/29 03:58:51;;;;;;;14.82;7.85;;;;;;;;;;5013461;28;20094;-82
2022/03/29 04:01:17;;;;;;;18.45;8.63;;;;;;;;;;5004355;28;20030;-79
2022/03/29 04:03:42;;;;;;;15.35;8.15;;;;;;;;;;5003816;28;20037;-82
2022/03/29 04:06:07;;;;;;;15.25;7.72;;;;;;;;;;5003072;28;20022;-81
2022/03/29 04:08:33;;;;;;;15.30;8.35;;;;;;;;;;4986997;28;20038;-80
2022/03/29 04:10:59;;;;;;;13.82;8.20;;;;;;;;;;5004036;28;20029;-81
2022/03/29 04:13:24;;;;;;;15.13;8.35;;;;;;;;;;5002033;28;20042;-82
2022/03/29 04:15:49;;;;;;;17.83;8.48;;;;;;;;;;5006945;28;20049;-81
2022/03/29 04:18:16;;;;;;;12.88;7.90;;;;;;;;;;5023710;28;20122;-82
2022/03/29 04:20:42;;;;;;;17.25;7.97;;;;;;;;;;5021393;28;20072;-81
2022/03/29 04:23:08;;;;;;;17.52;7.55;;;;;;;;;;5014782;28;20025;-82
2022/03/29 04:25:34;;;;;;;19.63;8.50;;;;;;;;;;5007574;28;20030;-82
2022/03/29 04:28:00;;;;;;;12.48;7.07;;;;;;;;;;5014358;28;20014;-80
2022/03/29 04:30:26;;;;;;;15.65;7.80;;;;;;;;;;5019422;28;20061;-81
2022/03/29 04:32:52;;;;;;;14.48;7.90;;;;;;;;;;4985484;28;20034;-81
2022/03/29 04:35:18;;;;;;;16.17;7.95;;;;;;;;;;5002469;28;20041;-81
2022/03/29 04:37:43;;;;;;;20.75;8.05;;;;;;;;;;4985594;28;20022;-81
2022/03/29 04:40:10;;;;;;;17.80;8.05;;;;;;;;;;4996300;28;20023;-81
2022/03/29 04:42:43;;;;;;;17.25;9.52;;;;;;;;;;5013373;28;20050;-79
2022/03/29 04:45:09;;;;;;;29.15;9.13;;;;;;;;;;5013971;28;20387;-80
2022/03/29 04:47:34;;;;;;;20.23;8.63;;;;;;;;;;5020523;28;20037;-81
2022/03/29 04:49:59;;;;;;;52.28;11.75;;;;;;;;;;5025777;28;20022;-83
2022/03/29 04:52:25;;;;;;;19.60;8.20;;;;;;;;;;5014074;28;20022;-81
2022/03/29 04:54:52;;;;;;;16.15;7.38;;;;;;;;;;5019205;28;20022;-81
2022/03/29 04:57:17;;;;;;;18.92;9.27;;;;;;;;;;4984200;28;20488;-81
2022/03/29 04:59:43;;;;;;;23.67;8.70;;;;;;;;;;4999131;28;20041;-88
2022/03/29 05:02:08;;;;;;;19.02;8.55;;;;;;;;;;4961159;28;20538;-81
2022/03/29 05:04:34;;;;;;;16.25;8.48;;;;;;;;;;4998806;28;20033;-80
2022/03/29 05:06:59;;;;;;;15.63;7.38;;;;;;;;;;4998478;28;20041;-82
2022/03/29 05:09:24;;;;;;;22.65;8.73;;;;;;;;;;4999672;28;20033;-81
2022/03/29 05:11:50;;;;;;;19.65;8.23;;;;;;;;;;5001579;28;20109;-81
2022/03/29 05:14:15;;;;;;;13.15;7.47;;;;;;;;;;5002974;28;20025;-80
2022/03/29 05:16:41;;;;;;;19.35;7.75;;;;;;;;;;5013475;28;20030;-84
2022/03/29 05:19:06;;;;;;;18.65;7.88;;;;;;;;;;5023617;28;20040;-84
2022/03/29 05:21:31;;;;;;;15.45;7.90;;;;;;;;;;5020340;28;20060;-83
2022/03/29 05:23:57;;;;;;;21.98;7.78;;;;;;;;;;5018918;28;20033;-82
2022/03/29 05:26:22;;;;;;;16.33;7.72;;;;;;;;;;5005970;28;20216;-82
2022/03/29 05:28:48;;;;;;;13.45;7.82;;;;;;;;;;5022910;28;20030;-83
2022/03/29 05:31:13;;;;;;;14.85;7.93;;;;;;;;;;4996387;28;20041;-83
2022/03/29 05:33:38;;;;;;;15.35;7.85;;;;;;;;;;5004920;28;20034;-82
2022/03/29 05:36:04;;;;;;;21.17;7.78;;;;;;;;;;4986992;28;20054;-82
2022/03/29 05:38:30;;;;;;;13.35;7.90;;;;;;;;;;5005256;28;20034;-81
2022/03/29 05:40:55;;;;;;;16.48;6.95;;;;;;;;;;5004042;28;20027;-83
2022/03/29 05:43:20;;;;;;;14.65;7.72;;;;;;;;;;5013526;28;20038;-81
2022/03/29 05:48:51;;;;;;;19.20;8.30;;;;;;;;;;5012695;28;20007;-82
2022/03/29 05:48:52;;;;;;;22.30;8.85;;;;;;;;;;5025915;28;20471;-82
2022/03/29 05:51:17;;;;;;;18.52;8.35;;;;;;;;;;5019809;28;20052;-82
2022/03/29 05:53:43;;;;;;;24.15;8.82;;;;;;;;;;5014780;28;20022;-82
2022/03/29 05:56:08;;;;;;;20.23;10.23;;;;;;;;;;5008837;28;20689;-83
2022/03/29 05:58:34;;;;;;;26.15;8.98;;;;;;;;;;5003594;28;20022;-82
2022/03/29 06:00:59;;;;;;;21.88;8.82;;;;;;;;;;5009200;28;20022;-82
2022/03/29 06:03:25;;;;;;;20.27;10.77;;;;;;;;;;5007710;28;20022;-82
2022/03/29 06:05:51;;;;;;;19.65;10.15;;;;;;;;;;5002267;28;20053;-82
2022/03/29 06:08:16;;;;;;;28.75;9.77;;;;;;;;;;5010118;28;20423;-82
2022/03/29 06:10:42;;;;;;;29.45;9.75;;;;;;;;;;5016379;28;20033;-81
2022/03/29 06:13:08;;;;;;;27.75;9.27;;;;;;;;;;4988411;28;20030;-84
2022/03/29 06:15:35;;;;;;;19.60;8.90;;;;;;;;;;5006303;28;20101;-82
2022/03/29 06:18:01;;;;;;;27.70;9.20;;;;;;;;;;5008557;28;20033;-81
2022/03/29 06:20:26;;;;;;;47.30;10.38;;;;;;;;;;5026491;28;20034;-83
2022/03/29 06:22:51;;;;;;;31.00;10.32;;;;;;;;;;5015674;28;20390;-85
2022/03/29 06:25:17;;;;;;;24.63;10.05;;;;;;;;;;5022400;28;20027;-82
2022/03/29 06:27:42;;;;;;;25.50;9.38;;;;;;;;;;5015677;28;20014;-84
2022/03/29 06:30:09;;;;;;;22.80;9.32;;;;;;;;;;5007735;28;20039;-81
2022/03/29 06:32:48;;;;;;;19.38;9.77;;;;;;;;;;5008036;28;20081;-82
2022/03/29 06:35:13;;;;;;;23.13;9.18;;;;;;;;;;5006444;28;20033;-81
2022/03/29 06:37:38;;;;;;;15.75;8.55;;;;;;;;;;4999676;28;20030;-82
2022/03/29 06:40:05;;;;;;;19.88;8.15;;;;;;;;;;4994399;28;20061;-83
2022/03/29 06:42:30;;;;;;;16.20;8.38;;;;;;;;;;4979863;28;20034;-82
2022/03/29 06:44:56;;;;;;;25.45;9.40;;;;;;;;;;4981168;28;20038;-82
2022/03/29 06:47:21;;;;;;;28.42;10.35;;;;;;;;;;4998114;28;20505;-83
2022/03/29 06:49:46;;;;;;;19.75;8.73;;;;;;;;;;4983199;28;20086;-82
2022/03/29 06:54:43;;;;;;;20.17;9.48;;;;;;;;;;5019288;23;20050;-82
2022/03/29 06:57:09;;;;;;;18.15;9.20;;;;;;;;;;4981794;28;20034;-86
2022/03/29 06:59:34;;;;;;;26.40;9.65;;;;;;;;;;4981214;28;20026;-83
2022/03/29 07:02:00;;;;;;;24.10;9.50;;;;;;;;;;5007508;28;20022;-82
2022/03/29 07:04:25;;;;;;;30.42;9.50;;;;;;;;;;5007820;28;20065;-82
2022/03/29 07:06:51;;;;;;;27.80;9.48;;;;;;;;;;5016643;28;20036;-82
2022/03/29 07:12:00;;;;;;;32.47;11.77;;;;;;;;;;5006806;28;20085;-82
2022/03/29 07:14:25;;;;;;;23.73;9.23;;;;;;;;;;4988984;28;20042;-81
2022/03/29 07:16:51;;;;;;;26.75;9.88;;;;;;;;;;4990723;28;20026;-82
2022/03/29 07:19:16;;;;;;;27.35;10.65;;;;;;;;;;5007216;28;20034;-82
2022/03/29 07:21:43;;;;;;;23.98;9.48;;;;;;;;;;5015937;28;20026;-80
2022/03/29 07:24:11;;;;;;;23.25;10.40;;;;;;;;;;5009264;28;20062;-80
2022/03/29 07:26:37;;;;;;;24.58;9.75;;;;;;;;;;5016457;28;20028;-84
2022/03/29 07:29:04;;;;;;;25.25;9.45;;;;;;;;;;5009470;28;20077;-83
2022/03/29 07:31:30;;;;;;;21.58;9.70;;;;;;;;;;4989208;28;20053;-82
2022/03/29 07:33:56;;;;;;;27.33;10.30;;;;;;;;;;4989270;28;20342;-82
2022/03/29 07:36:21;;;;;;;20.58;9.88;;;;;;;;;;4988597;28;20057;-83
2022/03/29 07:38:46;;;;;;;24.00;9.60;;;;;;;;;;5005815;28;20393;-82
2022/03/29 07:41:12;;;;;;;22.40;9.52;;;;;;;;;;5008304;28;20026;-83
2022/03/29 07:43:37;;;;;;;33.85;10.27;;;;;;;;;;5015921;28;20029;-82
2022/03/29 07:46:03;;;;;;;17.27;8.75;;;;;;;;;;5014084;28;20397;-85
2022/03/29 07:48:28;;;;;;;26.80;9.77;;;;;;;;;;5023903;28;20018;-82
2022/03/29 07:50:53;;;;;;;28.83;8.73;;;;;;;;;;5017809;28;20037;-83
2022/03/29 07:53:21;;;;;;;15.40;8.95;;;;;;;;;;5017508;28;20060;-85
2022/03/29 07:55:46;;;;;;;16.58;8.93;;;;;;;;;;5017252;28;20029;-83
2022/03/29 07:58:13;;;;;;;28.50;9.63;;;;;;;;;;5001348;28;20026;-82
2022/03/29 08:00:39;;;;;;;19.85;10.52;;;;;;;;;;5025433;28;20026;-82
2022/03/29 08:03:07;;;;;;;22.00;9.43;;;;;;;;;;5024938;28;20022;-83
2022/03/29 08:05:34;;;;;;;21.67;9.38;;;;;;;;;;5006984;28;20105;-83
2022/03/29 08:08:00;;;;;;;26.30;10.48;;;;;;;;;;5024939;28;20025;-83
2022/03/29 08:10:28;;;;;;;22.48;10.02;;;;;;;;;;5024944;28;20061;-83
2022/03/29 08:12:58;;;;;;;22.48;9.23;;;;;;;;;;5008337;28;20024;-81
2022/03/29 08:15:23;;;;;;;22.20;10.10;;;;;;;;;;4989421;28;20037;-83
2022/03/29 08:17:49;;;;;;;21.83;9.43;;;;;;;;;;5021357;28;20061;-81
2022/03/29 08:20:14;;;;;;;22.02;9.80;;;;;;;;;;5025276;28;20084;-84
2022/03/29 08:22:44;;;;;;;16.23;9.27;;;;;;;;;;5012284;28;20062;-82
2022/03/29 08:25:12;;;;;;;23.13;10.45;;;;;;;;;;5008985;28;20063;-84
2022/03/29 08:27:37;;;;;;;20.75;9.13;;;;;;;;;;5003439;28;20022;-83
2022/03/29 08:30:04;;;;;;;22.65;8.80;;;;;;;;;;5004402;28;20037;-83
2022/03/29 08:32:29;;;;;;;19.35;8.82;;;;;;;;;;5006132;28;20065;-83
2022/03/29 08:34:54;;;;;;;19.58;8.57;;;;;;;;;;4997921;28;20023;-83
2022/03/29 08:37:20;;;;;;;18.33;8.70;;;;;;;;;;4987315;28;20035;-81
2022/03/29 08:39:46;;;;;;;21.10;8.98;;;;;;;;;;4977803;28;20023;-83
2022/03/29 08:42:16;;;;;;;15.70;9.13;;;;;;;;;;4990030;28;20022;-84
2022/03/29 08:44:42;;;;;;;19.02;8.68;;;;;;;;;;5018040;28;20488;-85
2022/03/29 08:47:09;;;;;;;16.30;8.70;;;;;;;;;;4990210;28;20377;-84
2022/03/29 08:49:35;;;;;;;17.02;9.23;;;;;;;;;;5006880;28;20029;-82
2022/03/29 08:52:03;;;;;;;17.08;8.38;;;;;;;;;;4989243;28;20026;-81
2022/03/29 08:54:29;;;;;;;31.85;10.00;;;;;;;;;;4994066;28;20034;-84
2022/03/29 08:56:54;;;;;;;17.45;8.73;;;;;;;;;;5014266;28;20033;-80
2022/03/29 08:59:20;;;;;;;17.33;9.77;;;;;;;;;;5018421;28;20056;-83
2022/03/29 09:01:47;;;;;;;17.45;8.85;;;;;;;;;;5022928;28;20026;-83
2022/03/29 09:04:20;;;;;;;15.45;8.10;;;;;;;;;;5010069;28;20058;-81
2022/03/29 09:07:02;;;;;;;15.60;8.20;;;;;;;;;;5022579;28;20022;-84
2022/03/29 09:09:35;;;;;;;20.38;8.85;;;;;;;;;;5005849;28;20061;-84
2022/03/29 09:12:18;;;;;;;17.30;9.07;;;;;;;;;;5023923;28;20125;-85
2022/03/29 09:14:50;;;;;;;18.17;8.48;;;;;;;;;;5019265;28;20058;-84
2022/03/29 09:17:31;;;;;;;24.80;9.40;;;;;;;;;;5014566;28;20113;-83
2022/03/29 09:19:58;;;;;;;15.65;8.82;;;;;;;;;;5023188;28;20454;-81
2022/03/29 09:22:43;;;;;;;16.58;7.95;;;;;;;;;;5013616;28;20018;-87
2022/03/29 09:25:39;;;;;;;16.27;8.55;;;;;;;;;;4988619;28;20642;-84
2022/03/29 09:28:13;;;;;;;27.05;9.85;;;;;;;;;;5011028;28;20042;-82
2022/03/29 09:30:44;;;;;;;25.00;9.82;;;;;;;;;;5024172;28;20064;-82
2022/03/29 09:33:13;;;;;;;20.67;9.57;;;;;;;;;;5029402;28;20021;-83
2022/03/29 09:35:58;;;;;;;18.95;9.65;;;;;;;;;;5011420;28;20121;-83
2022/03/29 09:38:34;;;;;;;17.48;8.23;;;;;;;;;;5012169;28;20030;-84
2022/03/29 09:41:01;;;;;;;20.98;9.02;;;;;;;;;;4994163;28;20082;-85
2022/03/29 09:43:28;;;;;;;19.38;10.48;;;;;;;;;;5025404;28;20384;-84
2022/03/29 09:45:59;;;;;;;21.20;9.70;;;;;;;;;;5017881;28;20082;-83
2022/03/29 09:48:37;;;;;;;29.23;10.37;;;;;;;;;;4990515;28;20055;-83
2022/03/29 09:51:15;;;;;;;20.70;10.20;;;;;;;;;;4998855;28;20026;-83
2022/03/29 09:53:51;;;;;;;22.13;10.07;;;;;;;;;;5021199;28;20036;-83
2022/03/29 09:56:24;;;;;;;22.23;10.18;;;;;;;;;;5026246;28;20018;-82
2022/03/29 09:59:10;;;;;;;16.73;9.23;;;;;;;;;;5017906;28;20021;-81
2022/03/29 10:01:47;;;;;;;19.10;8.77;;;;;;;;;;5014160;28;20432;-82
2022/03/29 10:04:15;;;;;;;31.23;10.15;;;;;;;;;;4983560;28;20081;-81
2022/03/29 10:06:42;;;;;;;17.98;9.15;;;;;;;;;;4983300;28;20037;-81
2022/03/29 10:09:27;;;;;;;16.60;9.52;;;;;;;;;;5001124;28;20026;-81
2022/03/29 10:12:03;;;;;;;21.40;9.55;;;;;;;;;;5001690;28;20022;-82
2022/03/29 10:14:31;;;;;;;21.95;9.10;;;;;;;;;;5004447;28;20469;-84
2022/03/29 10:16:57;;;;;;;20.20;9.93;;;;;;;;;;5016864;28;20349;-83
2022/03/29 10:19:23;;;;;;;20.63;9.43;;;;;;;;;;5029849;28;20026;-81
2022/03/29 10:21:50;;;;;;;17.75;9.15;;;;;;;;;;5028450;28;20033;-83
2022/03/29 10:24:18;;;;;;;18.40;9.05;;;;;;;;;;5029150;28;20025;-82
2022/03/29 10:26:46;;;;;;;20.85;9.57;;;;;;;;;;5021638;28;20066;-84
2022/03/29 10:29:12;;;;;;;21.80;9.65;;;;;;;;;;5019259;28;20039;-86
2022/03/29 10:31:48;;;;;;;15.75;9.38;;;;;;;;;;5014762;28;20376;-86
2022/03/29 10:34:25;;;;;;;22.05;10.13;;;;;;;;;;5003482;28;20033;-83
2022/03/29 10:37:09;;;;;;;18.90;10.75;;;;;;;;;;5003772;28;20021;-84
2022/03/29 10:39:57;;;;;;;25.50;10.57;;;;;;;;;;5015013;28;20472;-86
2022/03/29 10:42:26;;;;;;;33.00;9.95;;;;;;;;;;5009733;28;20077;-84
2022/03/29 10:45:09;;;;;;;18.77;9.65;;;;;;;;;;5005838;28;20030;-85
2022/03/29 10:47:35;;;;;;;17.88;9.52;;;;;;;;;;4978343;28;20057;-82
2022/03/29 10:50:03;;;;;;;16.83;9.40;;;;;;;;;;4998193;28;20034;-85
2022/03/29 10:52:36;;;;;;;16.95;9.57;;;;;;;;;;4998279;28;20527;-87
2022/03/29 10:55:17;;;;;;;16.45;9.38;;;;;;;;;;4981317;28;20026;-86
2022/03/29 10:58:16;;;;;;;22.73;9.38;;;;;;;;;;5002546;28;20019;-85
2022/03/29 11:00:44;;;;;;;21.27;9.57;;;;;;;;;;4947442;28;20034;-84
2022/03/29 11:03:12;;;;;;;23.75;10.52;;;;;;;;;;4984035;28;20078;-87
2022/03/29 11:06:18;;;;;;;21.10;11.02;;;;;;;;;;5000655;28;20042;-85
2022/03/29 11:09:06;;;;;;;20.83;9.77;;;;;;;;;;4997913;28;20468;-83
2022/03/29 11:11:51;;;;;;;21.33;9.35;;;;;;;;;;4997246;28;20058;-85
2022/03/29 11:14:35;;;;;;;25.23;9.82;;;;;;;;;;4983472;28;20564;-85
2022/03/29 11:17:08;;;;;;;21.48;10.05;;;;;;;;;;4983747;28;20062;-85
2022/03/29 11:19:44;;;;;;;19.77;9.95;;;;;;;;;;5001099;28;20022;-87
2022/03/29 11:22:21;;;;;;;19.98;9.73;;;;;;;;;;5000780;28;20030;-85
2022/03/29 11:24:48;;;;;;;19.13;9.20;;;;;;;;;;4982042;28;20062;-84
2022/03/29 11:27:22;;;;;;;22.52;10.30;;;;;;;;;;5000996;28;20034;-86
2022/03/29 11:29:47;;;;;;;18.60;9.07;;;;;;;;;;4983054;28;20472;-84
2022/03/29 11:32:15;;;;;;;19.17;10.10;;;;;;;;;;5008311;28;20026;-86
2022/03/29 11:34:40;;;;;;;20.85;10.75;;;;;;;;;;4997982;28;20385;-82
2022/03/29 11:37:07;;;;;;;20.75;9.20;;;;;;;;;;5016678;28;20480;-84
2022/03/29 11:39:38;;;;;;;20.50;9.95;;;;;;;;;;5014527;28;20023;-86
2022/03/29 11:42:04;;;;;;;18.60;9.40;;;;;;;;;;4999448;28;20026;-86
2022/03/29 11:44:31;;;;;;;17.58;9.85;;;;;;;;;;5008509;28;20038;-84
2022/03/29 11:46:57;;;;;;;20.33;10.23;;;;;;;;;;5010677;28;20021;-84
2022/03/29 11:49:26;;;;;;;32.17;10.65;;;;;;;;;;4990849;28;20038;-83
2022/03/29 11:52:11;;;;;;;21.90;10.10;;;;;;;;;;4967862;28;20049;-82
2022/03/29 11:54:56;;;;;;;23.88;9.80;;;;;;;;;;4996391;28;20053;-82
2022/03/29 11:57:40;;;;;;;22.75;10.65;;;;;;;;;;4979852;28;20092;-86
2022/03/29 12:00:23;;;;;;;22.58;11.18;;;;;;;;;;4994328;28;20026;-85
2022/03/29 12:02:49;;;;;;;21.65;11.35;;;;;;;;;;4992690;28;20029;-85
2022/03/29 12:05:27;;;;;;;21.52;10.05;;;;;;;;;;4992717;28;20543;-85
2022/03/29 12:08:03;;;;;;;19.80;10.60;;;;;;;;;;4970525;28;20488;-85
2022/03/29 12:10:32;;;;;;;18.13;10.82;;;;;;;;;;4987140;28;20015;-86
2022/03/29 12:12:57;;;;;;;20.30;10.43;;;;;;;;;;4972720;28;20392;-87
2022/03/29 12:15:23;;;;;;;21.65;10.60;;;;;;;;;;4997151;28;20460;-83
2022/03/29 12:21:46;;;;;;;19.83;10.10;;;;;;;;;;4996764;28;20161;-85
2022/03/29 12:24:12;;;;;;;20.02;10.52;;;;;;;;;;4983843;28;20053;-85
2022/03/29 12:27:04;;;;;;;22.77;10.75;;;;;;;;;;4969655;28;20028;-85
2022/03/29 12:29:32;;;;;;;22.48;11.10;;;;;;;;;;4973266;28;20473;-86
2022/03/29 12:36:13;;;;;;;22.67;10.23;;;;;;;;;;4993091;28;20085;-85
2022/03/29 12:39:15;;;;;;;38.70;10.88;;;;;;;;;;4998526;28;20105;-85
2022/03/29 12:42:25;;;;;;;32.85;10.43;;;;;;;;;;4999830;28;20031;-83
2022/03/29 12:45:07;;;;;;;18.33;9.75;;;;;;;;;;4985499;28;20054;-85
2022/03/29 12:47:33;;;;;;;23.85;11.10;;;;;;;;;;5005792;28;20073;-85
2022/03/29 12:50:00;;;;;;;24.58;11.25;;;;;;;;;;4975431;28;20112;-84
2022/03/29 12:52:26;;;;;;;23.65;11.50;;;;;;;;;;5019298;28;20032;-84
2022/03/29 12:54:58;;;;;;;24.73;11.15;;;;;;;;;;5002033;28;20057;-84
2022/03/29 12:58:11;;;;;;;22.45;10.95;;;;;;;;;;5005689;28;20040;-84
2022/03/29 13:00:47;;;;;;;23.30;11.95;;;;;;;;;;4976188;28;20489;-81
2022/03/29 13:03:12;;;;;;;22.42;10.65;;;;;;;;;;4989704;28;20043;-84
2022/03/29 13:05:37;;;;;;;23.60;11.90;;;;;;;;;;4991516;28;20019;-84
2022/03/29 13:08:22;;;;;;;22.33;10.90;;;;;;;;;;4990191;28;20396;-85
2022/03/29 13:10:50;;;;;;;25.60;11.38;;;;;;;;;;4975113;28;20019;-85
2022/03/29 13:13:28;;;;;;;23.65;11.93;;;;;;;;;;4989979;28;20034;-85
2022/03/29 13:16:00;;;;;;;30.27;11.93;;;;;;;;;;4993476;28;20094;-84
2022/03/29 13:18:28;;;;;;;;;;;;;;;;;;4993452;28;20019;-84
2022/03/29 13:28:42;;;;;;;22.20;11.20;;;;;;;;;;4906687;29;20034;-84
2022/03/29 13:38:03;;;;;;;25.00;11.88;;;;;;;;;;4909182;29;20576;-82
2022/03/29 13:40:57;;;;;;;22.90;11.90;;;;;;;;;;4964604;28;20045;-84
2022/03/29 13:43:22;;;;;;;22.75;11.95;;;;;;;;;;4979429;28;20516;-84
2022/03/29 13:45:48;;;;;;;27.48;12.18;;;;;;;;;;5002842;28;20088;-84
2022/03/29 13:48:13;;;;;;;27.02;11.73;;;;;;;;;;4998946;28;20110;-84
2022/03/29 13:50:40;;;;;;;26.48;12.02;;;;;;;;;;4992885;28;20077;-84
2022/03/29 13:53:06;;;;;;;23.38;13.27;;;;;;;;;;4967430;28;20192;-84
2022/03/29 13:55:34;;;;;;;28.85;13.38;;;;;;;;;;4998164;28;20049;-84
2022/03/29 13:58:00;;;;;;;37.42;13.77;;;;;;;;;;4980980;28;20081;-84
2022/03/29 14:00:26;;;;;;;26.02;13.05;;;;;;;;;;4979896;28;20102;-84
2022/03/29 14:02:51;;;;;;;28.05;13.77;;;;;;;;;;4998269;28;20528;-84
2022/03/29 14:05:16;;;;;;;23.88;12.70;;;;;;;;;;5001208;28;20054;-84
2022/03/29 14:07:42;;;;;;;28.52;13.68;;;;;;;;;;5002807;28;20027;-83
2022/03/29 14:10:08;;;;;;;42.08;12.95;;;;;;;;;;4995156;28;20026;-83
2022/03/29 14:12:33;;;;;;;30.58;12.63;;;;;;;;;;4986290;28;20033;-84
2022/03/29 14:15:02;;;;;;;29.77;13.25;;;;;;;;;;4997499;28;20046;-83
2022/03/29 14:17:27;;;;;;;36.63;14.18;;;;;;;;;;4977175;28;20103;-84
2022/03/29 14:19:52;;;;;;;29.77;13.93;;;;;;;;;;4994953;28;20478;-85
2022/03/29 14:22:18;;;;;;;24.08;12.80;;;;;;;;;;4990223;28;20286;-84
2022/03/29 14:24:44;;;;;;;34.63;13.80;;;;;;;;;;4991274;28;20033;-85
2022/03/29 14:27:10;;;;;;;29.17;13.93;;;;;;;;;;4994641;28;20046;-83
2022/03/29 14:29:36;;;;;;;26.45;12.93;;;;;;;;;;4982638;28;20511;-84
2022/03/29 14:32:02;;;;;;;35.25;13.05;;;;;;;;;;4997510;28;20107;-84
2022/03/29 14:34:28;;;;;;;25.83;13.25;;;;;;;;;;4991080;28;21054;-84
2022/03/29 14:36:54;;;;;;;26.02;13.07;;;;;;;;;;4989751;28;20031;-85
2022/03/29 14:39:19;;;;;;;39.58;13.27;;;;;;;;;;4997370;28;20037;-82
2022/03/29 14:41:45;;;;;;;22.42;12.32;;;;;;;;;;4990757;28;20137;-82
2022/03/29 14:44:11;;;;;;;25.75;12.15;;;;;;;;;;4998236;28;20049;-83
2022/03/29 14:46:38;;;;;;;30.00;12.90;;;;;;;;;;4976211;28;20023;-81
2022/03/29 14:49:04;;;;;;;29.88;13.60;;;;;;;;;;4990770;28;20019;-82
2022/03/29 14:51:30;;;;;;;27.02;13.05;;;;;;;;;;4992158;28;20030;-84
2022/03/29 14:53:58;;;;;;;28.13;13.32;;;;;;;;;;4991756;28;20022;-80
2022/03/29 14:56:23;;;;;;;31.23;13.77;;;;;;;;;;4996300;28;20101;-79
2022/03/29 14:58:48;;;;;;;28.50;12.90;;;;;;;;;;4995175;28;20058;-82
2022/03/29 15:01:14;;;;;;;30.73;13.20;;;;;;;;;;4995456;28;20031;-85
2022/03/29 15:03:39;;;;;;;31.23;13.43;;;;;;;;;;4986165;28;20048;-84